Time;durP1;ratioP1;P1;durP2;ratioP2;P2;SDS_P1;SDS_P2;PMS_P1;PMS_P2;Temp;Humidity;BMP_temperature;BMP_pressure;BME280_temperature;BME280_humidity;BME280_pressure;Samples;Min_cycle;Max_cycle;Signal;HPM_P1;HPM_P2
2023/01/26 00:01:39;;;;;;;12.35;6.57;;;;;;;-1.64;67.11;100704.69;6050111;23;20019;-85
2023/01/26 00:04:11;;;;;;;11.70;6.22;;;;;;;-1.83;67.03;100660.31;6002700;23;20012;-86
2023/01/26 00:06:42;;;;;;;15.25;7.18;;;;;;;-2.61;66.68;100527.66;6026427;23;20056;-87
2023/01/26 00:09:16;;;;;;;17.25;6.47;;;;;;;-2.49;66.71;100555.50;6049905;23;20019;-86
2023/01/26 00:11:44;;;;;;;14.23;6.70;;;;;;;-2.59;66.29;100538.81;6025800;23;20118;-90
2023/01/26 00:14:23;;;;;;;10.20;5.50;;;;;;;-2.29;66.02;100591.44;6051369;23;20019;-86
2023/01/26 00:17:02;;;;;;;12.90;5.63;;;;;;;-2.48;66.57;100549.63;6098013;23;20018;-86
2023/01/26 00:19:56;;;;;;;15.70;6.43;;;;;;;-2.18;66.74;100620.09;6120323;23;20018;-87
2023/01/26 00:22:39;;;;;;;;;;;;;;;;;;;;;
2023/01/26 00:25:09;;;;;;;12.93;6.57;;;;;;;-2.20;66.20;100644.63;6148164;23;20025;-86
2023/01/26 00:27:41;;;;;;;12.40;6.22;;;;;;;-2.34;66.35;100597.97;6178822;23;20009;-84
2023/01/26 00:30:43;;;;;;;11.90;6.00;;;;;;;-2.44;66.64;100584.69;6120474;23;20051;-86
2023/01/26 00:33:51;;;;;;;;;;;;;;;;;;;;;
2023/01/26 00:36:30;;;;;;;14.00;5.75;;;;;;;-2.50;66.65;100550.34;6060487;23;20025;-87
2023/01/26 00:39:12;;;;;;;13.00;6.80;;;;;;;-1.82;66.57;100667.16;6142458;23;20025;-87
2023/01/26 00:42:27;;;;;;;10.38;5.97;;;;;;;-1.97;66.30;100635.72;6119755;23;20335;-87
2023/01/26 00:45:09;;;;;;;12.40;5.57;;;;;;;-2.30;66.58;100566.72;6118487;23;20028;-84
2023/01/26 00:47:40;;;;;;;11.88;5.45;;;;;;;-2.40;66.27;100562.78;6118022;23;20052;-84
2023/01/26 00:50:13;;;;;;;11.23;5.55;;;;;;;-2.91;66.47;100496.25;6117870;23;20025;-88
2023/01/26 00:52:54;;;;;;;;;;;;;;;;;;;;;
2023/01/26 00:56:05;;;;;;;10.90;5.15;;;;;;;-2.56;66.32;100594.22;6101293;23;20025;-87
2023/01/26 00:58:55;;;;;;;11.52;5.57;;;;;;;-2.46;66.20;100591.38;6117493;23;20096;-87
2023/01/26 01:01:32;;;;;;;10.27;5.95;;;;;;;-1.94;66.29;100696.22;6095060;23;20093;-88
2023/01/26 01:04:29;;;;;;;9.43;5.47;;;;;;;-3.29;66.59;100474.56;6167322;23;20018;-87
2023/01/26 01:07:07;;;;;;;10.32;5.35;;;;;;;-3.12;66.50;100527.34;6092203;23;20033;-89
2023/01/26 01:09:47;;;;;;;15.18;5.68;;;;;;;-2.38;67.08;100606.22;6144182;23;20024;-87
2023/01/26 01:13:02;;;;;;;11.85;6.03;;;;;;;-2.78;67.05;100538.59;6167613;23;20025;-88
2023/01/26 01:19:29;;;;;;;10.70;5.43;;;;;;;-2.17;66.82;100611.63;6253768;22;20039;-84
2023/01/26 01:24:49;;;;;;;13.23;6.47;;;;;;;-3.11;66.35;100467.97;6217744;23;20042;-84
2023/01/26 01:27:40;;;;;;;11.27;5.95;;;;;;;-3.04;66.94;100479.38;6270964;22;20004;-84
2023/01/26 01:33:23;;;;;;;8.32;4.72;;;;;;;-2.83;66.90;100551.06;6236090;23;20013;-81
2023/01/26 01:36:32;;;;;;;;;;;;;;;;;;;;;
2023/01/26 01:39:05;;;;;;;9.13;5.03;;;;;;;-2.15;67.01;100650.88;6183192;23;20021;-85
2023/01/26 01:41:49;;;;;;;10.90;5.97;;;;;;;-3.66;66.81;100413.13;6208300;23;20027;-86
2023/01/26 01:44:41;;;;;;;9.75;5.28;;;;;;;-3.19;66.58;100515.94;6192019;23;20031;-85
2023/01/26 01:47:25;;;;;;;9.40;5.28;;;;;;;-3.16;66.86;100520.31;6161582;23;20017;-87
2023/01/26 01:50:03;;;;;;;11.80;5.78;;;;;;;-3.24;66.41;100488.44;6180375;23;20016;-87
2023/01/26 01:53:13;;;;;;;9.35;5.13;;;;;;;-2.74;66.90;100564.31;6205313;23;20027;-87
2023/01/26 01:55:46;;;;;;;10.27;5.72;;;;;;;-2.17;66.48;100677.94;6163045;23;20020;-86
2023/01/26 01:58:22;;;;;;;10.27;6.00;;;;;;;-2.45;66.41;100618.63;6184861;23;20025;-86
2023/01/26 02:04:12;;;;;;;12.25;6.00;;;;;;;-2.09;66.79;100651.22;6185790;23;20054;-88
2023/01/26 02:07:17;;;;;;;;;;;;;;;;;;;;;
2023/01/26 02:13:23;;;;;;;12.35;5.60;;;;;;;-1.99;66.70;100663.69;6207848;23;20016;-86
2023/01/26 02:16:03;;;;;;;12.00;6.57;;;;;;;-1.94;66.93;100661.41;6180005;23;20020;-85
2023/01/26 02:18:49;;;;;;;10.48;5.40;;;;;;;-2.51;66.83;100546.03;6201864;23;20020;-88
2023/01/26 02:21:34;;;;;;;11.50;5.57;;;;;;;-2.84;66.21;100513.66;6203297;23;20020;-86
2023/01/26 02:24:34;;;;;;;13.07;5.85;;;;;;;-2.30;66.15;100589.66;6178971;23;20016;-88
2023/01/26 02:27:13;;;;;;;12.27;6.50;;;;;;;-2.76;66.62;100498.78;6177418;23;20016;-88
2023/01/26 02:29:58;;;;;;;;;;;;;;;;;;;;;
2023/01/26 02:32:31;;;;;;;11.98;5.57;;;;;;;-1.98;66.72;100631.41;6177259;23;20020;-88
2023/01/26 02:35:25;;;;;;;12.38;6.28;;;;;;;-2.49;66.32;100552.09;6177741;23;20023;-87
2023/01/26 02:38:20;;;;;;;11.13;6.22;;;;;;;-2.42;66.30;100552.53;6178222;23;20429;-87
2023/01/26 02:42:37;;;;;;;12.25;6.65;;;;;;;-2.58;66.21;100512.56;6153577;23;20027;-86
2023/01/26 02:43:57;;;;;;;12.40;6.07;;;;;;;-2.28;66.14;100557.50;6177269;23;20020;-86
2023/01/26 02:46:42;;;;;;;12.18;6.05;;;;;;;-1.74;66.23;100654.81;6202215;23;20016;-84
2023/01/26 02:52:11;;;;;;;11.15;6.30;;;;;;;-2.63;66.24;100500.34;6198203;23;20012;-86
2023/01/26 02:55:23;;;;;;;14.45;6.47;;;;;;;-2.45;66.13;100503.91;6171799;23;20027;-88
2023/01/26 02:57:54;;;;;;;12.57;6.10;;;;;;;-1.68;66.40;100629.63;6175431;23;20100;-86
2023/01/26 03:00:36;;;;;;;12.60;5.90;;;;;;;-2.16;65.60;100563.28;6189530;22;20003;-84
2023/01/26 03:03:17;;;;;;;11.65;6.68;;;;;;;-2.74;65.92;100439.47;6180058;23;20051;-86
2023/01/26 03:05:53;;;;;;;12.77;6.10;;;;;;;-1.59;65.75;100628.38;6229635;23;20020;-88
2023/01/26 03:08:28;;;;;;;11.07;5.78;;;;;;;-1.69;65.29;100598.94;6178969;23;20010;-86
2023/01/26 03:10:58;;;;;;;13.30;7.22;;;;;;;-1.74;65.74;100605.47;6206073;23;19997;-88
2023/01/26 03:13:55;;;;;;;11.63;6.05;;;;;;;-3.02;65.56;100401.41;6177101;23;20446;-87
2023/01/26 03:16:36;;;;;;;8.90;5.55;;;;;;;-3.06;65.57;100376.56;6165205;23;20484;-86
2023/01/26 03:28:12;;;;;;;9.98;5.53;;;;;;;-2.06;65.38;100548.47;6205581;23;20028;-86
2023/01/26 03:31:08;;;;;;;12.82;6.22;;;;;;;-2.88;65.19;100407.25;6185532;23;20021;-86
2023/01/26 03:33:47;;;;;;;;;;;;;;;;;;;;;
2023/01/26 03:36:42;;;;;;;12.32;5.80;;;;;;;-2.48;65.99;100493.53;6180553;23;20023;-84
2023/01/26 03:58:09;;;;;;;10.77;5.90;;;;;;;-1.47;65.33;100623.06;6233891;23;20365;-86
2023/01/26 04:00:38;;;;;;;12.15;6.18;;;;;;;-2.31;65.48;100489.38;6183182;23;20032;-85
2023/01/26 04:09:20;;;;;;;13.77;5.90;;;;;;;-2.20;65.29;100505.25;6179657;23;20043;-88
2023/01/26 04:12:18;;;;;;;12.00;6.22;;;;;;;-1.50;64.84;100618.66;6205708;23;20013;-88
2023/01/26 04:21:50;;;;;;;11.95;5.97;;;;;;;-2.59;65.03;100469.16;6202571;23;20047;-85
2023/01/26 04:24:21;;;;;;;10.30;5.53;;;;;;;-2.49;64.90;100493.47;6230659;23;20024;-85
2023/01/26 04:27:03;;;;;;;11.18;5.35;;;;;;;-2.14;65.57;100536.19;6203452;23;20054;-84
2023/01/26 04:29:45;;;;;;;9.93;5.68;;;;;;;-1.99;65.49;100569.31;6177887;23;20107;-86
2023/01/26 04:32:36;;;;;;;10.85;5.75;;;;;;;-2.75;65.42;100444.50;6180820;23;20074;-86
2023/01/26 04:35:22;;;;;;;10.65;5.68;;;;;;;-2.45;64.84;100500.50;6181544;23;20307;-85
2023/01/26 04:37:58;;;;;;;11.00;5.75;;;;;;;-2.42;65.08;100504.09;6178918;23;20128;-86
2023/01/26 04:40:41;;;;;;;12.85;6.10;;;;;;;-2.30;64.92;100525.94;6180600;23;20496;-88
2023/01/26 04:43:48;;;;;;;11.43;6.32;;;;;;;-1.77;64.65;100621.50;6162393;23;20021;-87
2023/01/26 04:47:07;;;;;;;10.73;5.88;;;;;;;-1.77;64.94;100608.75;6196410;23;20100;-88
2023/01/26 04:49:55;;;;;;;11.65;5.88;;;;;;;-3.12;65.03;100384.75;6194516;23;20012;-87
2023/01/26 04:52:41;;;;;;;12.68;6.35;;;;;;;-3.01;65.02;100415.03;6167536;23;20017;-86
2023/01/26 04:55:15;;;;;;;10.90;6.38;;;;;;;-1.74;65.78;100618.22;6168056;23;20011;-87
2023/01/26 04:57:46;;;;;;;11.70;5.32;;;;;;;-2.45;64.78;100514.09;6238751;23;20004;-85
2023/01/26 05:00:29;;;;;;;10.05;5.57;;;;;;;-2.76;64.45;100465.66;6191499;23;20031;-85
2023/01/26 05:03:03;;;;;;;12.60;6.28;;;;;;;-1.67;65.46;100627.97;6165687;23;20038;-86
2023/01/26 05:05:37;;;;;;;10.82;5.95;;;;;;;-2.49;64.98;100475.63;6192498;23;20001;-85
2023/01/26 05:08:06;;;;;;;11.70;6.07;;;;;;;-3.11;64.93;100365.25;6163760;23;20020;-86
2023/01/26 05:11:07;;;;;;;10.43;5.53;;;;;;;-1.78;65.06;100623.94;6232837;23;20025;-86
2023/01/26 05:14:28;;;;;;;11.43;5.78;;;;;;;-3.07;64.86;100393.53;6186312;23;20012;-87
2023/01/26 05:17:16;;;;;;;12.13;5.95;;;;;;;-2.52;65.03;100486.50;6192068;23;20021;-85
2023/01/26 05:20:11;;;;;;;8.57;5.20;;;;;;;-2.15;64.58;100523.34;6142639;23;20033;-87
2023/01/26 05:23:29;;;;;;;10.75;5.55;;;;;;;-2.58;65.11;100461.56;6113005;23;20034;-86
2023/01/26 05:30:21;;;;;;;10.95;5.68;;;;;;;-2.85;65.02;100404.88;6077236;23;20018;-88
2023/01/26 05:33:37;;;;;;;11.32;6.13;;;;;;;-1.87;65.17;100597.13;6101261;23;20025;-88
2023/01/26 05:36:30;;;;;;;10.75;5.75;;;;;;;-1.69;65.28;100610.00;6062337;23;20072;-88
2023/01/26 05:39:52;;;;;;;;;;;;;;;;;;;;;
2023/01/26 05:43:04;;;;;;;13.48;6.03;;;;;;;-2.52;64.71;100455.94;6060130;23;20050;-87
2023/01/26 05:46:05;;;;;;;10.20;4.82;;;;;;;-2.56;64.84;100446.38;6077745;23;20089;-88
2023/01/26 05:49:57;;;;;;;;;;;;;;;;;;;;;
2023/01/26 05:58:23;;;;;;;10.82;5.47;;;;;;;-1.54;64.33;100606.50;6054028;23;20071;-89
2023/01/26 06:01:41;;;;;;;10.40;5.57;;;;;;;-1.52;64.66;100600.72;6006777;23;20034;-85
2023/01/26 06:04:34;;;;;;;9.05;5.03;;;;;;;-1.95;64.62;100509.13;6027911;23;20023;-90
2023/01/26 06:08:08;;;;;;;11.25;5.28;;;;;;;-1.79;64.17;100550.75;6019831;23;20030;-87
2023/01/26 06:11:23;;;;;;;10.20;5.68;;;;;;;-1.42;64.74;100616.50;6014401;23;20019;-90
2023/01/26 06:22:58;;;;;;;9.18;4.63;;;;;;;-1.34;64.26;100599.03;5806590;24;20030;-92
2023/01/26 06:26:05;;;;;;;8.40;4.93;;;;;;;-2.63;63.95;100376.34;5777016;24;20015;-89
2023/01/26 06:34:44;;;;;;;;;;;;;;;;;;;;;
2023/01/26 06:38:05;;;;;;;10.00;5.32;;;;;;;-2.92;63.74;100342.56;5861582;24;20029;-90
2023/01/26 06:41:36;;;;;;;9.05;4.63;;;;;;;-1.39;64.62;100586.91;5876286;24;20033;-90
2023/01/26 06:44:37;;;;;;;;;;;;;;;;;;;;;
2023/01/26 06:52:22;;;;;;;9.23;5.03;;;;;;;-1.24;63.63;100576.63;5933549;24;20028;-87
2023/01/26 07:04:33;;;;;;;11.40;4.72;;;;;;;-2.35;64.15;100366.75;5945622;24;20048;-88
2023/01/26 07:07:43;;;;;;;9.77;4.50;;;;;;;-2.22;63.62;100383.56;5889450;24;20042;-89
2023/01/26 11:29:01;;;;;;;10.25;4.80;;;;;;;0.78;60.81;100411.78;6166193;22;20009;-84
2023/01/26 11:32:16;;;;;;;8.85;5.15;;;;;;;0.63;61.41;100412.06;6120739;23;20053;-83
2023/01/26 11:36:34;;;;;;;;;;;;;;;;;;;;;
2023/01/26 11:40:29;;;;;;;;;;;;;;;;;;;;;
2023/01/26 11:43:42;;;;;;;13.10;5.22;;;;;;;0.69;60.98;100406.31;6129626;23;20093;-84
2023/01/26 11:46:49;;;;;;;;;;;;;;;;;;;;;
2023/01/26 11:54:35;;;;;;;9.88;4.88;;;;;;;0.77;62.05;100410.06;6187448;23;20013;-84
2023/01/26 11:58:15;;;;;;;;;;;;;;;;;;;;;
2023/01/26 12:01:21;;;;;;;12.63;5.40;;;;;;;0.09;61.21;100287.81;6222517;23;20060;-84
2023/01/26 12:09:17;;;;;;;9.60;4.50;;;;;;;-0.15;60.91;100239.06;6044974;23;20019;-83
2023/01/26 12:13:05;;;;;;;;;;;;;;;;;;;;;
2023/01/26 12:52:32;;;;;;;;;;;;;;;;;;;;;
2023/01/26 13:00:10;;;;;;;10.18;4.75;;;;;;;0.05;60.82;100201.47;6068466;23;20038;-83
2023/01/26 13:09:03;;;;;;;;;;;;;;;;;;;;;
2023/01/26 13:16:47;;;;;;;;;;;;;;;;;;;;;
2023/01/26 13:29:38;;;;;;;10.57;4.93;;;;;;;0.65;61.50;100399.28;5933619;24;20145;-82
2023/01/26 13:37:41;;;;;;;10.52;4.82;;;;;;;-0.40;61.77;100217.56;5897660;24;20025;-85
2023/01/26 13:50:44;;;;;;;11.98;5.65;;;;;;;-0.20;61.68;100272.09;5792724;24;20027;-84
2023/01/26 13:57:48;;;;;;;;;;;;;;;;;;;;;
2023/01/26 14:01:05;;;;;;;10.50;5.25;;;;;;;-0.03;62.24;100305.22;6135827;23;20032;-84
2023/01/26 14:04:26;;;;;;;10.93;4.68;;;;;;;0.63;62.70;100412.06;6185421;23;20036;-86
2023/01/26 14:07:46;;;;;;;;;;;;;;;;;;;;;
2023/01/26 14:11:24;;;;;;;12.90;5.57;;;;;;;-0.56;62.41;100227.94;6072580;23;20030;-84
2023/01/26 14:15:43;;;;;;;11.15;5.78;;;;;;;-0.56;62.20;100245.84;6047297;23;20059;-85
2023/01/26 14:22:21;;;;;;;10.15;5.10;;;;;;;-0.37;62.37;100290.97;6125484;23;20017;-86
2023/01/26 14:25:30;;;;;;;11.07;5.18;;;;;;;-0.72;62.22;100242.59;6163444;23;20028;-86
2023/01/26 14:28:33;;;;;;;;;;;;;;;;;;;;;
2023/01/26 14:32:31;;;;;;;10.60;5.22;;;;;;;-0.99;63.21;100229.47;6067835;23;20166;-82
2023/01/26 14:36:06;;;;;;;11.77;4.68;;;;;;;-0.80;63.21;100261.84;6038948;23;20018;-86
2023/01/26 14:38:16;;;;;;;11.55;5.47;;;;;;;-0.62;63.16;100279.66;6039128;23;20090;-84
2023/01/26 14:41:20;;;;;;;14.07;5.53;;;;;;;-1.10;63.01;100189.00;6043310;23;20018;-85
2023/01/26 14:44:29;;;;;;;12.60;6.00;;;;;;;-0.85;63.25;100251.41;6156895;23;20024;-84
2023/01/26 14:47:46;;;;;;;15.07;6.30;;;;;;;-0.94;63.32;100216.09;6132365;23;20041;-85
2023/01/26 14:50:53;;;;;;;12.68;5.35;;;;;;;0.08;63.23;100413.16;6196507;23;20035;-83
2023/01/26 14:54:20;;;;;;;13.23;5.60;;;;;;;-0.17;63.47;100379.69;6172066;23;20069;-84
2023/01/26 14:57:45;;;;;;;11.80;5.63;;;;;;;-0.43;63.46;100316.25;6071609;23;20149;-85
2023/01/26 15:30:35;;;;;;;;;;;;;;;;;;;;;
2023/01/26 15:37:57;;;;;;;15.10;6.70;;;;;;;-0.04;63.30;100393.03;6131521;23;20014;-82
2023/01/26 15:41:46;;;;;;;15.02;6.90;;;;;;;-0.22;63.59;100390.53;6193880;23;20427;-83
2023/01/26 15:45:06;;;;;;;14.93;6.30;;;;;;;-1.44;63.79;100219.81;6177149;23;20020;-83
2023/01/26 15:48:17;;;;;;;15.35;7.20;;;;;;;-0.63;64.06;100350.38;6092828;23;20040;-85
2023/01/26 16:05:43;;;;;;;13.95;6.65;;;;;;;-1.10;64.57;100278.41;5934165;24;20560;-82
2023/01/26 16:09:24;;;;;;;14.25;6.78;;;;;;;-1.75;65.04;100172.44;5917377;24;20048;-82
2023/01/26 16:12:16;;;;;;;15.93;6.97;;;;;;;-0.94;65.01;100297.00;5993462;23;20020;-85
2023/01/26 16:16:26;;;;;;;;;;;;;;;;;;;;;
2023/01/26 16:20:38;;;;;;;;;;;;;;;;;;;;;
2023/01/26 16:24:51;;;;;;;;;;;;;;;;;;;;;
2023/01/26 16:28:40;;;;;;;;;;;;;;;;;;;;;
2023/01/26 16:31:59;;;;;;;;;;;;;;;;;;;;;
2023/01/26 16:44:45;;;;;;;18.48;7.35;;;;;;;-1.93;65.05;100169.88;5818792;24;20117;-81
2023/01/26 16:47:47;;;;;;;14.07;7.20;;;;;;;-0.61;65.39;100392.25;5822124;24;20038;-82
2023/01/26 18:28:41;;;;;;;14.25;6.88;;;;;;;-0.94;66.66;100363.44;6205874;22;20032;-84
2023/01/26 18:40:56;;;;;;;17.15;6.57;;;;;;;-1.44;67.13;100284.50;6048864;23;20022;-85
2023/01/26 18:44:48;;;;;;;;;;;;;;;;;;;;;
2023/01/26 18:52:28;;;;;;;20.10;8.95;;;;;;;-2.28;66.81;100135.13;6106418;23;20025;-86
2023/01/26 19:04:57;;;;;;;;;;;;;;;;;;;;;
2023/01/26 19:09:13;;;;;;;14.38;6.40;;;;;;;-2.15;67.42;100167.19;5946770;24;20089;-86
2023/01/26 19:19:35;;;;;;;14.73;6.13;;;;;;;-1.03;67.12;100353.66;6129644;23;20080;-85
2023/01/26 19:28:15;;;;;;;;;;;;;;;;;;;;;
2023/01/26 19:41:11;;;;;;;14.77;6.35;;;;;;;-1.14;66.82;100348.06;6022968;23;20328;-89
2023/01/26 19:44:35;;;;;;;14.32;6.25;;;;;;;-2.46;67.29;100154.63;5896827;24;20032;-87
2023/01/26 20:06:55;;;;;;;11.10;5.80;;;;;;;-1.17;67.52;100318.91;6222603;23;20036;-88
2023/01/26 20:10:41;;;;;;;15.70;7.07;;;;;;;-1.16;67.05;100323.22;6175775;23;20102;-86
2023/01/26 20:14:25;;;;;;;;;;;;;;;;;;;;;
2023/01/26 20:20:11;;;;;;;12.90;6.50;;;;;;;-1.27;66.94;100321.06;6189883;23;20021;-86
2023/01/26 20:22:39;;;;;;;;;;;;;;;-1.23;66.87;100333.19;6179518;23;20020;-86
2023/01/26 20:25:15;;;;;;;12.00;6.13;;;;;;;-2.13;67.42;100186.00;6156034;23;19912;-85
2023/01/26 20:28:18;;;;;;;12.82;6.40;;;;;;;-1.21;67.35;100335.78;6129841;23;20023;-85
2023/01/26 20:31:32;;;;;;;;;;;;;;;;;;;;;
2023/01/26 20:34:24;;;;;;;;;;;;;;;;;;;;;
2023/01/26 20:37:20;;;;;;;13.35;6.75;;;;;;;-1.17;67.21;100336.81;6181271;23;20017;-87
2023/01/26 20:40:33;;;;;;;12.90;6.10;;;;;;;-2.05;67.43;100188.91;6170346;23;20073;-83
2023/01/26 20:43:48;;;;;;;13.77;6.30;;;;;;;-1.76;67.32;100247.22;6151549;23;20032;-84
2023/01/26 20:47:13;;;;;;;;;;;;;;;;;;;;;
2023/01/26 20:50:15;;;;;;;15.65;6.40;;;;;;;-1.56;67.07;100296.69;6163028;23;20785;-88
2023/01/26 20:53:13;;;;;;;12.85;6.40;;;;;;;-1.56;67.27;100287.34;6175986;23;20044;-86
2023/01/26 20:55:47;;;;;;;14.85;6.78;;;;;;;-1.80;67.65;100247.88;6162501;23;20017;-86
2023/01/26 20:58:41;;;;;;;12.95;6.00;;;;;;;-2.62;66.84;100125.81;6175844;23;20101;-86
2023/01/26 21:01:17;;;;;;;12.85;6.05;;;;;;;-1.26;67.37;100332.13;6122791;23;20021;-85
2023/01/26 21:03:50;;;;;;;14.93;6.32;;;;;;;-1.44;67.55;100286.19;6122143;23;20021;-84
2023/01/26 21:06:32;;;;;;;13.98;6.05;;;;;;;-2.48;67.39;100118.84;6169359;23;20378;-86
2023/01/26 21:09:04;;;;;;;12.52;6.28;;;;;;;-1.33;66.73;100320.75;6144498;23;20431;-86
2023/01/26 21:11:36;;;;;;;12.90;6.80;;;;;;;-2.38;67.25;100168.59;6171498;23;20076;-87
2023/01/26 21:14:11;;;;;;;11.82;5.88;;;;;;;-2.12;67.26;100212.34;6196215;23;20041;-87
2023/01/26 21:16:46;;;;;;;16.50;7.03;;;;;;;-1.54;67.09;100301.06;6145173;23;20045;-83
2023/01/26 21:19:18;;;;;;;12.15;6.30;;;;;;;-1.99;67.41;100229.13;6178586;23;20008;-85
2023/01/26 21:21:53;;;;;;;13.88;6.65;;;;;;;-1.55;67.26;100294.22;6179462;23;19997;-84
2023/01/26 21:24:54;;;;;;;20.95;8.05;;;;;;;-2.70;67.18;100100.75;6201270;23;20044;-86
2023/01/26 21:27:33;;;;;;;17.73;7.80;;;;;;;-1.82;66.68;100248.69;6146122;23;20019;-85
2023/01/26 21:30:27;;;;;;;18.10;8.32;;;;;;;-1.27;67.57;100322.72;6122043;23;20008;-84
2023/01/26 21:33:04;;;;;;;33.58;14.57;;;;;;;-1.95;67.48;100204.63;6146313;23;20076;-84
2023/01/26 21:35:44;;;;;;;32.42;14.68;;;;;;;-1.93;67.53;100183.53;6170125;23;20856;-84
2023/01/26 21:38:42;;;;;;;24.98;11.25;;;;;;;-1.15;67.12;100312.22;6194428;23;20076;-83
2023/01/26 21:44:22;;;;;;;30.52;12.30;;;;;;;-1.71;67.57;100243.22;6145094;23;20024;-83
2023/01/26 21:47:02;;;;;;;20.50;7.93;;;;;;;-2.12;66.96;100180.09;6167743;23;20087;-87
2023/01/26 21:49:48;;;;;;;17.83;8.23;;;;;;;-1.82;67.22;100224.84;6145986;23;20013;-85
2023/01/26 21:52:59;;;;;;;19.92;9.30;;;;;;;-1.71;67.77;100272.16;6181014;23;20085;-87
2023/01/26 21:55:49;;;;;;;18.02;8.85;;;;;;;-1.30;67.05;100325.13;6166239;23;20064;-85
2023/01/26 21:59:01;;;;;;;21.90;9.95;;;;;;;-1.53;67.20;100305.38;6179207;23;20021;-87
2023/01/26 22:01:49;;;;;;;16.63;8.60;;;;;;;-1.37;67.16;100354.59;6125007;23;20076;-86
2023/01/26 22:04:26;;;;;;;18.77;9.23;;;;;;;-2.42;67.05;100153.94;6177465;23;20450;-86
2023/01/26 22:07:07;;;;;;;21.92;9.55;;;;;;;-2.37;66.84;100159.28;6132867;23;20024;-89
2023/01/26 22:09:39;;;;;;;19.25;9.10;;;;;;;-2.43;67.32;100170.94;6151329;23;20021;-85
2023/01/26 22:12:11;;;;;;;17.38;8.38;;;;;;;-2.19;67.05;100211.19;6145104;23;20017;-83
2023/01/26 22:14:42;;;;;;;16.60;7.57;;;;;;;-1.49;67.41;100313.19;6144128;23;20020;-82
2023/01/26 22:17:09;;;;;;;15.32;7.80;;;;;;;-1.72;67.56;100274.66;6168632;23;20047;-83
2023/01/26 22:19:35;;;;;;;19.77;8.35;;;;;;;-1.26;67.02;100325.38;6118603;23;20024;-84
2023/01/26 22:22:04;;;;;;;13.98;7.43;;;;;;;-1.34;66.92;100347.09;6142826;23;20027;-83
2023/01/26 22:24:35;;;;;;;17.52;7.20;;;;;;;-2.25;66.94;100195.56;6198070;23;20039;-86
2023/01/26 22:28:57;;;;;;;13.38;6.85;;;;;;;-1.31;67.32;100331.03;6125298;23;20084;-88
2023/01/26 22:31:49;;;;;;;11.20;5.10;;;;;;;-1.40;67.06;100329.81;6196576;23;20035;-85
2023/01/26 22:34:41;;;;;;;10.32;5.30;;;;;;;-2.40;66.92;100138.75;6147157;23;20473;-87
2023/01/26 22:38:12;;;;;;;9.80;4.78;;;;;;;-1.33;67.22;100328.41;6144778;23;20017;-89
2023/01/26 22:40:45;;;;;;;8.43;4.25;;;;;;;-1.94;66.49;100249.75;6028058;23;20026;-84
2023/01/26 22:43:21;;;;;;;10.25;4.50;;;;;;;-1.75;67.31;100292.38;6074392;23;20146;-84
2023/01/26 22:45:59;;;;;;;8.70;4.43;;;;;;;-2.24;67.13;100196.47;6115895;23;20020;-82
2023/01/26 22:53:23;;;;;;;12.77;4.47;;;;;;;-1.34;66.72;100319.00;6197829;23;20116;-82
2023/01/26 22:56:50;;;;;;;10.02;4.60;;;;;;;-1.29;67.08;100335.44;6181462;23;19996;-87
2023/01/26 23:08:43;;;;;;;8.27;4.50;;;;;;;-2.25;66.64;100205.78;6110733;23;20017;-85
2023/01/26 23:14:33;;;;;;;8.10;3.90;;;;;;;-1.60;66.89;100323.72;6047988;23;20074;-87
2023/01/26 23:16:59;;;;;;;9.82;4.85;;;;;;;-1.56;67.04;100322.22;6026855;23;20115;-83
2023/01/26 23:20:12;;;;;;;10.02;4.38;;;;;;;-1.57;67.24;100335.78;6104381;23;20029;-84
2023/01/26 23:23:29;;;;;;;;;;;;;;;-1.59;67.28;100320.38;6131835;23;20063;-86
2023/01/26 23:26:05;;;;;;;8.02;4.05;;;;;;;-1.99;66.77;100264.84;6120055;23;19912;-86
2023/01/26 23:28:57;;;;;;;8.70;4.53;;;;;;;-2.21;66.82;100232.31;6083355;23;20017;-88
2023/01/26 23:31:44;;;;;;;7.80;4.32;;;;;;;-1.68;67.30;100304.63;6119938;23;20073;-85
2023/01/26 23:34:17;;;;;;;8.75;4.00;;;;;;;-2.91;66.71;100132.00;6165465;23;20021;-86
2023/01/26 23:37:04;;;;;;;11.30;4.90;;;;;;;-2.29;66.45;100232.81;6113940;23;20031;-88
2023/01/26 23:39:32;;;;;;;10.82;5.28;;;;;;;-1.70;67.35;100339.41;6114931;23;20091;-85
2023/01/26 23:42:00;;;;;;;13.93;6.30;;;;;;;-2.09;66.93;100265.19;6138351;23;20020;-84
2023/01/26 23:44:30;;;;;;;15.80;6.68;;;;;;;-2.08;66.60;100261.84;6138385;23;20027;-86
2023/01/26 23:47:00;;;;;;;19.35;7.63;;;;;;;-2.05;67.33;100282.41;6114146;23;20041;-87
2023/01/26 23:49:30;;;;;;;14.32;6.88;;;;;;;-2.17;66.81;100245.28;6137561;23;20049;-87
2023/01/26 23:52:18;;;;;;;15.27;6.93;;;;;;;-1.67;66.98;100321.69;6137225;23;20358;-87
